createdAt,value
2022-09-20T00:01:56.749Z,13.64
2022-09-20T00:04:25.730Z,13.51
2022-09-20T00:06:55.148Z,13.39
2022-09-20T00:09:24.228Z,13.30
2022-09-20T00:11:53.166Z,13.38
2022-09-20T00:14:23.600Z,13.48
2022-09-20T00:16:53.026Z,13.51
2022-09-20T00:19:23.369Z,13.37
2022-09-20T00:21:52.477Z,13.25
2022-09-20T00:24:21.655Z,13.21
2022-09-20T00:26:50.489Z,13.34
2022-09-20T00:29:19.580Z,13.50
2022-09-20T00:31:50.187Z,13.52
2022-09-20T00:34:36.887Z,13.48
2022-09-20T00:37:06.117Z,13.54
2022-09-20T00:39:35.177Z,13.40
2022-09-20T00:42:04.081Z,13.40
2022-09-20T00:44:58.067Z,13.38
2022-09-20T00:47:39.288Z,13.34
2022-09-20T00:50:27.158Z,13.28
2022-09-20T00:53:01.365Z,13.22
2022-09-20T00:55:31.289Z,13.24
2022-09-20T00:58:01.149Z,13.13
2022-09-20T01:00:30.198Z,13.09
2022-09-20T01:03:06.159Z,13.08
2022-09-20T01:05:35.762Z,13.07
2022-09-20T01:08:05.352Z,13.05
2022-09-20T01:10:34.551Z,13.11
2022-09-20T01:13:04.484Z,12.93
2022-09-20T01:15:36.162Z,12.82
2022-09-20T01:18:08.543Z,12.74
2022-09-20T01:20:42.049Z,12.78
2022-09-20T01:23:27.801Z,12.63
2022-09-20T01:26:21.362Z,12.56
2022-09-20T01:29:02.649Z,12.67
2022-09-20T01:31:36.895Z,12.61
2022-09-20T01:34:12.291Z,12.44
2022-09-20T01:36:45.337Z,12.51
2022-09-20T01:39:24.489Z,12.59
2022-09-20T01:41:59.587Z,12.45
2022-09-20T01:44:39.228Z,12.38
2022-09-20T01:47:28.931Z,12.44
2022-09-20T01:50:04.682Z,12.29
2022-09-20T01:53:01.975Z,12.40
2022-09-20T01:55:50.231Z,12.39
2022-09-20T01:59:12.802Z,12.48
2022-09-20T02:02:10.497Z,12.45
2022-09-20T02:05:21.009Z,12.41
2022-09-20T02:08:09.177Z,12.34
2022-09-20T02:10:58.933Z,12.39
2022-09-20T02:13:32.938Z,12.27
2022-09-20T02:16:31.561Z,12.34
2022-09-20T02:19:22.333Z,12.46
2022-09-20T02:22:05.369Z,12.44
2022-09-20T02:24:43.274Z,12.41
2022-09-20T02:27:24.223Z,12.50
2022-09-20T02:35:06.792Z,12.47
2022-09-20T02:37:59.641Z,12.40
2022-09-20T02:40:54.369Z,12.34
2022-09-20T02:43:34.166Z,12.43
2022-09-20T02:46:10.114Z,12.38
2022-09-20T02:48:49.056Z,12.49
2022-09-20T02:51:29.506Z,12.68
2022-09-20T02:54:13.898Z,12.74
2022-09-20T02:56:52.310Z,12.74
2022-09-20T02:59:32.227Z,12.82
2022-09-20T03:02:17.264Z,12.76
2022-09-20T03:05:04.692Z,12.93
2022-09-20T03:07:44.311Z,12.79
2022-09-20T03:10:22.814Z,12.84
2022-09-20T03:13:06.029Z,12.84
2022-09-20T03:15:51.020Z,12.92
2022-09-20T03:18:28.260Z,12.84
2022-09-20T03:21:06.351Z,12.68
2022-09-20T03:23:51.242Z,12.60
2022-09-20T03:26:33.269Z,12.57
2022-09-20T03:29:06.112Z,12.53
2022-09-20T03:31:53.991Z,12.42
2022-09-20T03:34:39.127Z,12.33
2022-09-20T03:37:37.637Z,12.05
2022-09-20T03:40:46.309Z,12.39
2022-09-20T03:43:28.603Z,12.26
2022-09-20T03:46:10.946Z,12.28
2022-09-20T03:49:18.142Z,12.40
2022-09-20T03:51:57.449Z,12.25
2022-09-20T03:54:59.028Z,12.31
2022-09-20T03:57:51.595Z,12.19
2022-09-20T04:00:31.411Z,12.23
2022-09-20T04:03:26.053Z,12.29
2022-09-20T04:06:08.649Z,12.35
2022-09-20T04:08:53.493Z,12.31
2022-09-20T04:11:31.546Z,12.27
2022-09-20T04:14:12.972Z,12.17
2022-09-20T04:16:50.537Z,12.15
2022-09-20T04:19:32.194Z,12.16
2022-09-20T04:22:03.485Z,12.06
2022-09-20T04:24:43.663Z,12.06
2022-09-20T04:27:18.934Z,12.14
2022-09-20T04:29:56.707Z,12.10
2022-09-20T04:32:32.021Z,12.13
2022-09-20T04:35:35.326Z,12.01
2022-09-20T04:38:09.744Z,11.96
2022-09-20T04:41:00.571Z,11.97
2022-09-20T04:44:09.038Z,11.96
2022-09-20T04:46:58.387Z,12.06
2022-09-20T04:50:11.032Z,12.02
2022-09-20T04:53:05.968Z,11.92
2022-09-20T04:55:56.994Z,12.08
2022-09-20T04:59:06.824Z,12.09
2022-09-20T05:02:20.165Z,12.12
2022-09-20T05:05:14.462Z,12.05
2022-09-20T05:08:30.706Z,12.29
2022-09-20T05:11:34.542Z,12.31
2022-09-20T05:14:36.600Z,12.24
2022-09-20T05:17:31.478Z,12.24
2022-09-20T05:20:41.862Z,12.35
2022-09-20T05:23:35.800Z,12.59
2022-09-20T05:26:24.907Z,12.65
2022-09-20T05:29:02.802Z,12.84
2022-09-20T05:31:40.456Z,12.75
2022-09-20T05:34:21.626Z,12.70
2022-09-20T05:37:00.413Z,12.99
2022-09-20T05:39:37.606Z,13.17
2022-09-20T05:42:18.327Z,13.25
2022-09-20T05:45:01.704Z,13.38
2022-09-20T05:47:50.037Z,13.56
2022-09-20T05:50:45.453Z,13.63
2022-09-20T05:53:44.541Z,13.69
2022-09-20T05:56:23.672Z,13.80
2022-09-20T05:59:17.797Z,13.84
2022-09-20T06:02:00.546Z,13.90
2022-09-20T06:04:37.149Z,13.77
2022-09-20T06:07:19.301Z,14.09
2022-09-20T06:10:20.246Z,14.17
2022-09-20T06:12:59.423Z,14.26
2022-09-20T06:15:38.262Z,14.47
2022-09-20T06:18:21.938Z,14.67
2022-09-20T06:20:59.076Z,15.03
2022-09-20T06:23:32.481Z,14.69
2022-09-20T06:26:07.794Z,14.96
2022-09-20T06:28:39.963Z,15.19
2022-09-20T06:31:10.670Z,15.15
2022-09-20T06:33:45.989Z,15.04
2022-09-20T06:36:35.161Z,14.98
2022-09-20T06:39:34.433Z,15.08
2022-09-20T06:42:04.137Z,15.03
2022-09-20T06:44:33.167Z,15.34
2022-09-20T06:47:02.015Z,15.35
2022-09-20T06:49:31.043Z,15.37
2022-09-20T06:52:00.242Z,15.62
2022-09-20T06:54:31.036Z,15.81
2022-09-20T06:57:02.815Z,15.69
2022-09-20T06:59:33.216Z,15.62
2022-09-20T07:02:02.377Z,15.87
2022-09-20T07:04:32.806Z,15.92
2022-09-20T07:07:06.117Z,16.30
2022-09-20T07:09:39.324Z,16.19
2022-09-20T07:12:12.544Z,16.04
2022-09-20T07:14:43.054Z,16.06
2022-09-20T07:17:12.173Z,16.09
2022-09-20T07:19:40.973Z,16.03
2022-09-20T07:22:10.165Z,15.73
2022-09-20T07:24:41.280Z,15.81
2022-09-20T07:27:12.077Z,15.91
2022-09-20T07:29:41.454Z,15.97
2022-09-20T07:32:10.558Z,16.28
2022-09-20T07:34:39.452Z,16.38
2022-09-20T07:37:08.482Z,16.69
2022-09-20T07:39:39.180Z,17.41
2022-09-20T07:42:08.462Z,17.69
2022-09-20T07:44:40.916Z,18.01
2022-09-20T07:47:11.946Z,17.81
2022-09-20T07:49:41.079Z,17.85
2022-09-20T07:52:11.408Z,17.73
2022-09-20T07:54:42.084Z,17.86
2022-09-20T07:57:11.691Z,18.27
2022-09-20T07:59:41.142Z,18.46
2022-09-20T08:02:15.447Z,18.28
2022-09-20T08:04:44.608Z,18.17
2022-09-20T08:07:13.758Z,17.86
2022-09-20T08:09:43.959Z,18.22
2022-09-20T08:15:03.564Z,17.71
2022-09-20T08:17:35.372Z,17.87
2022-09-20T08:20:04.980Z,17.71
2022-09-20T08:22:34.896Z,17.88
2022-09-20T08:25:06.050Z,17.94
2022-09-20T08:27:36.437Z,17.91
2022-09-20T08:30:06.394Z,18.11
2022-09-20T08:32:36.527Z,17.83
2022-09-20T08:35:05.687Z,18.14
2022-09-20T08:37:35.497Z,18.05
2022-09-20T08:40:06.697Z,18.53
2022-09-20T08:42:43.792Z,18.69
2022-09-20T08:45:38.306Z,18.33
2022-09-20T08:48:14.374Z,18.49
2022-09-20T08:50:43.846Z,18.74
2022-09-20T08:53:21.502Z,19.04
2022-09-20T08:55:52.154Z,18.68
2022-09-20T08:58:21.671Z,19.04
2022-09-20T09:00:50.825Z,19.41
2022-09-20T09:03:20.115Z,19.32
2022-09-20T09:05:51.878Z,19.46
2022-09-20T09:08:23.424Z,19.73
2022-09-20T09:10:56.927Z,20.47
2022-09-20T09:13:31.276Z,20.12
2022-09-20T09:16:02.913Z,20.65
2022-09-20T09:18:40.196Z,19.99
2022-09-20T09:21:17.381Z,20.60
2022-09-20T09:23:55.987Z,19.92
2022-09-20T09:26:27.983Z,20.08
2022-09-20T09:29:15.182Z,20.56
2022-09-20T09:31:45.376Z,21.43
2022-09-20T09:34:33.468Z,22.26
2022-09-20T09:37:02.974Z,21.38
2022-09-20T09:39:35.625Z,22.50
2022-09-20T09:42:23.653Z,22.45
2022-09-20T09:44:52.441Z,21.47
2022-09-20T09:47:28.635Z,20.36
2022-09-20T09:50:02.848Z,19.84
2022-09-20T09:52:36.436Z,19.53
2022-09-20T09:55:07.479Z,19.67
2022-09-20T09:57:54.147Z,19.73
2022-09-20T10:00:25.121Z,20.40
2022-09-20T10:03:13.725Z,22.53
2022-09-20T10:05:55.215Z,23.60
2022-09-20T10:08:35.319Z,23.28
2022-09-20T10:11:15.667Z,22.64
2022-09-20T10:13:58.875Z,20.53
2022-09-20T10:16:35.144Z,18.85
2022-09-20T10:19:14.192Z,18.40
2022-09-20T10:21:52.992Z,18.19
2022-09-20T10:24:35.032Z,18.20
2022-09-20T10:27:20.611Z,18.08
2022-09-20T10:30:08.614Z,17.89
2022-09-20T10:32:51.754Z,18.11
2022-09-20T10:35:27.559Z,18.46
2022-09-20T10:38:14.560Z,18.78
2022-09-20T10:41:15.161Z,19.22
2022-09-20T10:44:02.807Z,18.97
2022-09-20T10:46:49.950Z,19.85
2022-09-20T10:49:36.323Z,21.26
2022-09-20T10:52:25.900Z,21.90
2022-09-20T10:55:11.551Z,22.09
2022-09-20T10:57:57.642Z,21.90
2022-09-20T11:00:36.314Z,22.49
2022-09-20T11:03:20.580Z,23.94
2022-09-20T11:06:03.174Z,29.25
2022-09-20T11:08:37.799Z,29.60
2022-09-20T11:11:12.400Z,28.80
2022-09-20T11:13:46.821Z,28.31
2022-09-20T11:16:23.537Z,29.15
2022-09-20T11:19:00.363Z,30.02
2022-09-20T11:21:33.752Z,28.15
2022-09-20T11:24:07.727Z,29.39
2022-09-20T11:26:41.843Z,31.93
2022-09-20T11:29:21.945Z,33.66
2022-09-20T11:31:55.054Z,33.48
2022-09-20T11:34:30.908Z,32.03
2022-09-20T11:37:03.422Z,29.28
2022-09-20T11:39:40.164Z,28.60
2022-09-20T11:42:15.282Z,31.03
2022-09-20T11:44:44.901Z,32.89
2022-09-20T11:47:42.900Z,28.70
2022-09-20T11:50:44.366Z,25.15
2022-09-20T11:53:36.671Z,24.16
2022-09-20T11:56:16.712Z,22.60
2022-09-20T11:58:48.522Z,21.98
2022-09-20T12:01:28.579Z,21.30
2022-09-20T12:04:27.790Z,21.19
2022-09-20T12:07:02.442Z,22.05
2022-09-20T12:09:37.625Z,21.48
2022-09-20T12:12:24.574Z,19.81
2022-09-20T12:14:58.551Z,20.24
2022-09-20T12:18:09.000Z,19.98
2022-09-20T12:21:07.758Z,18.73
2022-09-20T12:24:03.445Z,18.89
2022-09-20T12:26:46.402Z,18.59
2022-09-20T12:29:54.679Z,18.35
2022-09-20T12:32:57.806Z,18.73
2022-09-20T12:36:17.428Z,18.58
2022-09-20T12:38:56.310Z,18.33
2022-09-20T12:41:28.859Z,18.26
2022-09-20T12:44:25.831Z,18.58
2022-09-20T12:46:58.182Z,18.80
2022-09-20T12:49:59.347Z,19.01
2022-09-20T12:52:53.689Z,19.35
2022-09-20T12:55:50.202Z,19.90
2022-09-20T12:58:25.425Z,20.98
2022-09-20T13:01:29.499Z,22.82
2022-09-20T13:04:40.731Z,29.31
2022-09-20T13:07:44.215Z,28.40
2022-09-20T13:10:27.622Z,25.11
2022-09-20T13:13:05.870Z,23.10
2022-09-20T13:15:39.429Z,22.95
2022-09-20T13:18:15.582Z,24.06
2022-09-20T13:20:45.026Z,24.98
2022-09-20T13:23:21.679Z,30.67
2022-09-20T13:25:52.083Z,32.42
2022-09-20T13:28:32.375Z,33.76
2022-09-20T13:31:31.272Z,34.07
2022-09-20T13:34:20.714Z,35.06
2022-09-20T13:36:55.998Z,36.40
2022-09-20T13:39:36.881Z,35.71
2022-09-20T13:42:14.830Z,36.12
2022-09-20T13:44:44.810Z,36.35
2022-09-20T13:47:27.981Z,36.22
2022-09-20T13:50:03.083Z,36.57
2022-09-20T13:52:34.776Z,36.65
2022-09-20T13:55:29.625Z,37.57
2022-09-20T13:58:03.714Z,36.13
2022-09-20T14:00:34.847Z,33.76
2022-09-20T14:03:06.459Z,33.37
2022-09-20T14:05:35.577Z,30.38
2022-09-20T14:08:08.384Z,29.69
2022-09-20T14:10:41.151Z,31.56
2022-09-20T14:13:15.132Z,29.76
2022-09-20T14:15:47.086Z,32.90
2022-09-20T14:18:21.314Z,32.67
2022-09-20T14:20:51.068Z,33.76
2022-09-20T14:23:25.807Z,34.49
2022-09-20T14:26:08.651Z,33.82
2022-09-20T14:28:37.969Z,33.18
2022-09-20T14:31:09.949Z,34.04
2022-09-20T14:33:45.286Z,31.92
2022-09-20T14:36:16.796Z,32.25
2022-09-20T14:38:48.484Z,27.87
2022-09-20T14:41:37.482Z,25.00
2022-09-20T14:44:17.668Z,23.49
2022-09-20T14:46:46.906Z,22.77
2022-09-20T14:49:33.030Z,21.92
2022-09-20T14:52:30.864Z,20.81
2022-09-20T14:55:01.962Z,19.96
2022-09-20T14:57:32.358Z,19.29
2022-09-20T15:00:14.107Z,18.91
2022-09-20T15:02:47.714Z,19.05
2022-09-20T15:05:26.283Z,19.10
2022-09-20T15:07:57.119Z,18.76
2022-09-20T15:10:27.180Z,18.39
2022-09-20T15:12:56.523Z,18.47
2022-09-20T15:15:25.429Z,18.06
2022-09-20T15:17:54.371Z,17.58
2022-09-20T15:20:25.609Z,17.02
2022-09-20T15:22:55.430Z,17.45
2022-09-20T15:25:24.764Z,17.27
2022-09-20T15:27:53.576Z,17.19
2022-09-20T15:30:22.435Z,16.47
2022-09-20T15:32:53.689Z,16.69
2022-09-20T15:35:25.344Z,16.50
2022-09-20T15:37:54.801Z,16.47
2022-09-20T15:40:24.198Z,15.99
2022-09-20T15:42:59.978Z,16.03
2022-09-20T15:45:29.341Z,15.93
2022-09-20T15:47:59.284Z,15.72
2022-09-20T15:50:30.415Z,15.76
2022-09-20T15:53:01.325Z,15.96
2022-09-20T15:55:30.305Z,16.05
2022-09-20T15:57:59.274Z,15.84
2022-09-20T16:00:29.018Z,15.72
2022-09-20T16:02:58.816Z,15.74
2022-09-20T16:05:30.682Z,15.74
2022-09-20T16:08:00.030Z,15.47
2022-09-20T16:10:29.024Z,15.49
2022-09-20T16:12:58.116Z,15.52
2022-09-20T16:15:27.027Z,15.44
2022-09-20T16:18:15.504Z,15.90
2022-09-20T16:20:46.097Z,15.97
2022-09-20T16:23:16.116Z,15.90
2022-09-20T16:25:50.501Z,15.93
2022-09-20T16:28:19.972Z,15.91
2022-09-20T16:30:57.828Z,15.92
2022-09-20T16:33:27.443Z,15.84
2022-09-20T16:35:59.597Z,15.56
2022-09-20T16:38:29.002Z,15.61
2022-09-20T16:41:00.292Z,15.73
2022-09-20T16:43:32.430Z,15.51
2022-09-20T16:46:02.166Z,15.63
2022-09-20T16:48:32.263Z,15.42
2022-09-20T16:51:02.817Z,15.44
2022-09-20T16:53:31.967Z,15.31
2022-09-20T16:56:02.035Z,15.21
2022-09-20T16:58:31.800Z,14.96
2022-09-20T17:01:05.975Z,14.79
2022-09-20T17:03:35.727Z,14.89
2022-09-20T17:06:07.103Z,14.88
2022-09-20T17:08:40.206Z,14.99
2022-09-20T17:11:11.553Z,14.78
2022-09-20T17:13:41.981Z,14.76
2022-09-20T17:16:12.664Z,14.86
2022-09-20T17:18:44.213Z,14.65
2022-09-20T17:21:16.544Z,14.57
2022-09-20T17:23:50.839Z,14.77
2022-09-20T17:26:23.189Z,14.91
2022-09-20T17:28:54.942Z,14.79
2022-09-20T17:31:28.686Z,14.86
2022-09-20T17:34:00.408Z,14.89
2022-09-20T17:36:32.726Z,14.82
2022-09-20T17:39:04.609Z,14.77
2022-09-20T17:41:36.691Z,14.87
2022-09-20T17:44:08.721Z,15.06
2022-09-20T17:46:40.406Z,15.15
2022-09-20T17:49:11.216Z,15.02
2022-09-20T17:51:43.893Z,14.91
2022-09-20T17:54:14.340Z,14.90
2022-09-20T17:56:48.808Z,14.93
2022-09-20T17:59:19.520Z,14.73
2022-09-20T18:01:50.714Z,14.55
2022-09-20T18:04:21.304Z,14.63
2022-09-20T18:06:53.772Z,14.62
2022-09-20T18:09:24.689Z,14.55
2022-09-20T18:11:56.518Z,14.51
2022-09-20T18:14:27.683Z,14.63
2022-09-20T18:17:01.037Z,14.63
2022-09-20T18:19:33.360Z,14.59
2022-09-20T18:22:04.768Z,14.56
2022-09-20T18:24:34.086Z,14.60
2022-09-20T18:27:04.779Z,14.86
2022-09-20T18:29:36.892Z,15.03
2022-09-20T18:32:07.465Z,15.13
2022-09-20T18:34:37.050Z,15.17
2022-09-20T18:37:14.752Z,15.28
2022-09-20T18:39:44.300Z,15.34
2022-09-20T18:42:13.582Z,15.11
2022-09-20T18:44:44.245Z,15.13
2022-09-20T18:47:13.489Z,15.16
2022-09-20T18:49:42.858Z,15.12
2022-09-20T18:52:14.497Z,15.13
2022-09-20T18:54:43.750Z,14.85
2022-09-20T18:57:13.496Z,14.99
2022-09-20T18:59:53.754Z,14.77
2022-09-20T19:02:51.096Z,15.00
2022-09-20T19:05:24.846Z,15.22
2022-09-20T19:08:08.282Z,14.87
2022-09-20T19:10:44.968Z,15.08
2022-09-20T19:13:30.714Z,14.96
2022-09-20T19:16:18.671Z,14.97
2022-09-20T19:19:16.060Z,14.81
2022-09-20T19:21:57.818Z,14.98
2022-09-20T19:24:42.217Z,14.98
2022-09-20T19:27:13.884Z,14.75
2022-09-20T19:29:44.181Z,14.76
2022-09-20T19:32:17.402Z,14.85
2022-09-20T19:34:47.418Z,14.88
2022-09-20T19:37:28.302Z,14.85
2022-09-20T19:40:14.665Z,14.82
2022-09-20T19:42:56.920Z,14.97
2022-09-20T19:45:35.964Z,14.84
2022-09-20T19:48:13.224Z,14.83
2022-09-20T19:50:48.243Z,14.81
2022-09-20T19:53:24.198Z,14.73
2022-09-20T19:55:58.291Z,14.63
2022-09-20T19:58:28.420Z,14.43
2022-09-20T20:00:59.057Z,14.53
2022-09-20T20:03:30.272Z,14.50
2022-09-20T20:06:08.395Z,14.39
2022-09-20T20:08:42.411Z,14.33
2022-09-20T20:11:26.877Z,14.17
2022-09-20T20:14:07.811Z,14.25
2022-09-20T20:16:48.899Z,14.27
2022-09-20T20:19:47.623Z,14.48
2022-09-20T20:22:30.753Z,14.35
2022-09-20T20:25:00.218Z,14.36
2022-09-20T20:27:32.512Z,14.38
2022-09-20T20:30:05.363Z,14.37
2022-09-20T20:32:36.828Z,14.54
2022-09-20T20:35:09.428Z,14.52
2022-09-20T20:37:39.842Z,14.64
2022-09-20T20:40:12.491Z,14.78
2022-09-20T20:42:43.937Z,14.76
2022-09-20T20:45:14.023Z,14.71
2022-09-20T20:47:44.295Z,14.76
2022-09-20T20:50:13.693Z,14.62
2022-09-20T20:52:42.588Z,14.39
2022-09-20T20:55:11.706Z,14.62
2022-09-20T20:57:42.001Z,14.85
2022-09-20T21:00:14.471Z,14.95
2022-09-20T21:02:43.812Z,14.74
2022-09-20T21:05:14.339Z,14.62
2022-09-20T21:07:44.200Z,14.62
2022-09-20T21:10:13.626Z,14.75
2022-09-20T21:12:43.978Z,14.63
2022-09-20T21:15:13.094Z,14.57
2022-09-20T21:17:42.166Z,14.63
2022-09-20T21:20:11.879Z,14.77
2022-09-20T21:22:41.260Z,14.82
2022-09-20T21:25:10.593Z,15.00
2022-09-20T21:27:39.551Z,15.00
2022-09-20T21:30:11.887Z,15.02
2022-09-20T21:32:43.302Z,14.77
2022-09-20T21:35:12.211Z,14.66
2022-09-20T21:37:41.447Z,14.58
2022-09-20T21:40:11.648Z,14.48
2022-09-20T21:42:40.679Z,14.59
2022-09-20T21:45:11.539Z,14.39
2022-09-20T21:47:40.634Z,14.51
2022-09-20T21:50:10.391Z,14.22
2022-09-20T21:52:39.609Z,14.13
2022-09-20T21:55:10.862Z,14.25
2022-09-20T21:57:39.993Z,14.28
2022-09-20T22:00:11.810Z,14.20
2022-09-20T22:02:43.134Z,14.15
2022-09-20T22:05:12.525Z,14.01
2022-09-20T22:07:41.602Z,13.87
2022-09-20T22:10:10.816Z,14.01
2022-09-20T22:12:39.943Z,13.89
2022-09-20T22:15:11.701Z,14.02
2022-09-20T22:17:41.481Z,14.22
2022-09-20T22:20:11.417Z,14.09
2022-09-20T22:22:40.329Z,14.06
2022-09-20T22:25:10.288Z,14.25
2022-09-20T22:27:39.323Z,14.16
2022-09-20T22:30:09.803Z,14.21
2022-09-20T22:32:40.415Z,14.23
2022-09-20T22:35:10.196Z,14.18
2022-09-20T22:37:39.361Z,14.18
2022-09-20T22:40:08.738Z,14.35
2022-09-20T22:42:37.791Z,14.24
2022-09-20T22:45:08.033Z,14.37
2022-09-20T22:47:36.957Z,14.30
2022-09-20T22:50:08.302Z,14.24
2022-09-20T22:52:37.454Z,14.23
2022-09-20T22:55:07.256Z,14.31
2022-09-20T22:57:37.536Z,14.25
2022-09-20T23:00:07.605Z,14.40
2022-09-20T23:02:36.904Z,14.31
2022-09-20T23:05:07.780Z,14.31
2022-09-20T23:07:37.479Z,14.20
2022-09-20T23:10:07.376Z,14.18
2022-09-20T23:12:36.712Z,14.16
2022-09-20T23:15:06.969Z,14.26
2022-09-20T23:17:35.905Z,14.34
2022-09-20T23:20:07.876Z,14.30
2022-09-20T23:22:37.190Z,14.34
2022-09-20T23:25:06.700Z,14.38
2022-09-20T23:27:35.605Z,14.36
2022-09-20T23:30:05.819Z,14.37
2022-09-20T23:32:34.903Z,14.34
2022-09-20T23:35:04.029Z,14.34
2022-09-20T23:37:34.683Z,14.15
2022-09-20T23:40:04.313Z,14.25
2022-09-20T23:42:33.205Z,14.26
2022-09-20T23:45:02.486Z,14.11
2022-09-20T23:47:32.278Z,13.88
2022-09-20T23:50:01.189Z,14.17
2022-09-20T23:52:30.469Z,14.09
2022-09-20T23:55:00.915Z,14.27
2022-09-20T23:57:29.892Z,14.28
2022-09-20T23:59:59.313Z,14.24
